This is the latest recevied weather packets stored in our database for station/object YO6LRV-3. If no packets are shown the sender has not sent any weather packets the latest 10 day(s).
| Time | Temp. | Humidity | Pressure | Rain* | Wind** | Luminosity | Snow |
|---|---|---|---|---|---|---|---|
| 1777647059 | 15° C | 36% | 1022 hPa | - | - | - | - |
| 1777646158 | 15° C | 36% | 1022.1 hPa | - | - | - | - |
| 1777641658 | 16.67° C | 34% | 1022.3 hPa | - | - | - | - |
| 1777639860 | 16.67° C | 36% | 1022.2 hPa | - | - | - | - |
| 1777638060 | 16.67° C | 35% | 1022.7 hPa | - | - | - | - |
| 1777635359 | 16.11° C | 39% | 1023.2 hPa | - | - | - | - |
| 1777634459 | 16.11° C | 38% | 1023.2 hPa | - | - | - | - |
| 1777633559 | 15° C | 40% | 1023.3 hPa | - | - | - | - |
| 1777632659 | 14.44° C | 41% | 1023.4 hPa | - | - | - | - |
| 1777631759 | 13.33° C | 43% | 1023.5 hPa | - | - | - | - |
| 1777630859 | 11.11° C | 46% | 1023.5 hPa | - | - | - | - |
| 1777629058 | 10.56° C | 49% | 1023.6 hPa | - | - | - | - |
| 1777626358 | 8.89° C | 51% | 1024 hPa | - | - | - | - |
| 1777624558 | 7.78° C | 55% | 1024 hPa | - | - | - | - |
| 1777623650 | 7.22° C | 55% | 1024.1 hPa | - | - | - | - |
| 1777622757 | 7.22° C | 56% | 1024.1 hPa | - | - | - | - |
| 1777621857 | 6.67° C | 60% | 1024 hPa | - | - | - | - |
| 1777620957 | 6.11° C | 62% | 1024 hPa | - | - | - | - |
| 1777620057 | 5.56° C | 62% | 1024 hPa | - | - | - | - |
| 1777619159 | 5° C | 64% | 1024 hPa | - | - | - | - |
| 1777618259 | 4.44° C | 63% | 1023.9 hPa | - | - | - | - |
| 1777617359 | 4.44° C | 63% | 1023.8 hPa | - | - | - | - |
| 1777615559 | 3.33° C | 65% | 1023.6 hPa | - | - | - | - |
| 1777613758 | 2.78° C | 68% | 1023.6 hPa | - | - | - | - |
| 1777612858 | 2.22° C | 70% | 1023.6 hPa | - | - | - | - |
* Rain since midnight (hover to see other rain measurements)
** Current wind speed in m/s (hover to see current wind gust speed)